Coral Nettuno — 9HRA9 — position and weather

sailwx.info

Track history (hours):
 
Tides and Currents Weather Stations Pressure Air Temp Water Temp Dewpoint Dewpoint Depression Visibility Wind Speed Wind Dir Waves Ship Positions

Coral Nettuno

Last reported at 2013-Jul-26 09:31 UTC. Time now 2014-Oct-25 08:56 UTC.
Position N 57°43' E 010°36'.
Warning: this ship's position is years out of date!

Length 109 m; draft 5.1 m.

Type: Tanker. MMSI: 249396000.

Date/timePositionNaut miles runAvg speedWind from/ knotsBaromVisibWave heightAir tempDewpointWater temp
2013-Jul-26 09:31N 57°43' E 010°36'0 0.0
2013-Jul-26 08:28N 57°43' E 010°36'0 0.0
2013-Jul-26 06:19N 57°43' E 010°36'0 0.0
2013-Jul-26 05:31N 57°43' E 010°36'0 0.0
2013-Jul-26 04:31N 57°43' E 010°36'0 0.0
2013-Jul-26 02:07N 57°43' E 010°36'0 0.0
2013-Jul-26 01:31N 57°43' E 010°36'0 0.0
2013-Jul-26 00:31N 57°43' E 010°36'0 0.0
2013-Jul-25 21:31N 57°43' E 010°36'0 0.0
2013-Jul-25 20:31N 57°43' E 010°36'0 0.0
2013-Jul-25 19:19N 57°43' E 010°36'0 0.0
2013-Jul-25 17:25N 57°43' E 010°36'0 0.0
2013-Jul-25 16:31N 57°43' E 010°36'0 0.0
2013-Jul-25 13:10N 57°43' E 010°36'0 0.0
2013-Jul-25 12:31N 57°43' E 010°36'0 0.0
2013-Jul-25 11:31N 57°43' E 010°36'0 0.0
2013-Jul-25 09:13N 57°43' E 010°36'0 0.0
2013-Jul-25 08:31N 57°43' E 010°36'0 0.0
2013-Jul-25 07:31N 57°43' E 010°36'0 0.0
2013-Jul-25 05:28N 57°43' E 010°36'0 0.0
2013-Jul-25 04:31N 57°43' E 010°36'0 0.0
2013-Jul-25 03:31N 57°43' E 010°36'0 0.0
2013-Jul-25 02:28N 57°43' E 010°36'0 0.0
2013-Jul-25 00:34N 57°43' E 010°36'6 6.1
2013-Jul-24 23:33N 57°41' E 010°47'1515.2
2013-Jul-24 22:34N 57°35' E 011°13'1515.1
2013-Jul-24 21:34N 57°23' E 011°29'1615.6
2013-Jul-24 20:34N 57°08' E 011°39'1515.0
2013-Jul-24 19:33N 56°54' E 011°48'1514.7
2013-Jul-24 18:33N 56°40' E 011°56'1515.2
2013-Jul-24 17:34N 56°25' E 012°02'44611.4
2013-Jul-23 02:33N 59°48' E 024°35'5 0.2
2013-Jul-21 23:09N 59°46' E 024°44'914.8
2013-Jul-21 22:33N 59°44' E 024°27'32913.6
2013-Jul-20 22:25N 56°04' E 016°46'1315.0
2013-Jul-20 21:34N 55°57' E 016°27'1514.8
2013-Jul-20 20:33N 55°50' E 016°04'1614.6
2013-Jul-20 19:28N 55°42' E 015°39'1314.6
2013-Jul-20 18:34N 55°36' E 015°18'1514.9
2013-Jul-20 17:33N 55°28' E 014°55'1514.7
2013-Jul-20 16:33N 55°20' E 014°34'1414.2
2013-Jul-20 15:33N 55°10' E 014°16'1514.7
2013-Jul-20 14:34N 55°11' E 013°51'1514.8
2013-Jul-20 13:34N 55°12' E 013°25'1514.7
2013-Jul-20 12:34N 55°13' E 012°59'1413.7
2013-Jul-20 11:33N 55°19' E 012°37'1413.5
2013-Jul-20 10:34N 55°32' E 012°42'1110.9
2013-Jul-20 09:34N 55°43' E 012°41'1414.0
2013-Jul-20 08:34N 55°57' E 012°38'1212.3
2013-Jul-20 07:33N 56°08' E 012°28'1514.9
2013-Jul-20 06:33N 56°16' E 012°06'1515.1
2013-Jul-20 05:33N 56°31' E 011°58'1515.4
2013-Jul-20 04:33N 56°46' E 011°51'1616.0
2013-Jul-20 03:32N 57°01' E 011°42'1515.3
2013-Jul-20 02:33N 57°15' E 011°32'1514.8
2013-Jul-20 01:33N 57°29' E 011°24'1515.1
2013-Jul-20 00:33N 57°44' E 011°27'1212.4
2013-Jul-19 23:33N 57°55' E 011°37'10 9.6
2013-Jul-19 22:34N 58°03' E 011°47'2 0.1
2013-Jul-18 18:33N 58°05' E 011°49'7 7.4
2013-Jul-18 17:33N 57°58' E 011°44'1110.7
2013-Jul-18 16:33N 57°52' E 011°28'1413.9
2013-Jul-18 15:33N 57°51' E 011°02'1615.8
2013-Jul-18 14:33N 57°48' E 010°33'1615.5
2013-Jul-18 13:33N 57°42' E 010°07'24114.2
2013-Jul-17 20:33N 54°38' E 005°27'1614.3
2013-Jul-17 19:26N 54°24' E 005°12'1314.4
2013-Jul-17 18:33N 54°13' E 005°01'1414.3
2013-Jul-17 17:33N 53°59' E 004°55'1514.7
2013-Jul-17 16:34N 53°45' E 004°52'1514.4
2013-Jul-17 15:31N 53°30' E 004°46'1714.5
2013-Jul-17 14:20N 53°15' E 004°35'1314.6
2013-Jul-17 13:27N 53°03' E 004°24'1314.7
2013-Jul-17 12:34N 52°52' E 004°14'1514.6
2013-Jul-17 11:34N 52°40' E 003°60'1515.4
2013-Jul-17 10:33N 52°29' E 003°41'1514.5
2013-Jul-17 09:33N 52°15' E 003°34'1515.4
2013-Jul-17 08:33N 52°00' E 003°29'1615.5
2013-Jul-17 07:33N 51°47' E 003°16'1413.6
2013-Jul-17 06:33N 51°34' E 003°24'1111.1
2013-Jul-17 05:33N 51°26' E 003°36'1111.0
2013-Jul-17 04:33N 51°21' E 003°52'8 8.2
2013-Jul-17 03:33N 51°22' E 004°05'1010.1
2013-Jul-17 02:34N 51°17' E 004°19'2 2.1
2013-Jul-17 01:34N 51°16' E 004°17'1 1.2
2013-Jul-17 00:33N 51°16' E 004°15'  
Track history (hours):
 
Tides and Currents Weather Stations Pressure Air Temp Water Temp Dewpoint Dewpoint Depression Visibility Wind Speed Wind Dir Waves Ship Positions

Coral Nettuno

Last reported at 2013-Jul-26 09:31 UTC. Time now 2014-Oct-25 08:56 UTC.
Position N 57°43' E 010°36'.
Warning: this ship's position is years out of date!

Length 109 m; draft 5.1 m.

Type: Tanker. MMSI: 249396000.

Date/timePositionNaut miles runAvg speedWind from/ knotsBaromVisibWave heightAir tempDewpointWater temp
2013-Jul-26 09:31N 57°43' E 010°36'0 0.0
2013-Jul-26 08:28N 57°43' E 010°36'0 0.0
2013-Jul-26 06:19N 57°43' E 010°36'0 0.0
2013-Jul-26 05:31N 57°43' E 010°36'0 0.0
2013-Jul-26 04:31N 57°43' E 010°36'0 0.0
2013-Jul-26 02:07N 57°43' E 010°36'0 0.0
2013-Jul-26 01:31N 57°43' E 010°36'0 0.0
2013-Jul-26 00:31N 57°43' E 010°36'0 0.0
2013-Jul-25 21:31N 57°43' E 010°36'0 0.0
2013-Jul-25 20:31N 57°43' E 010°36'0 0.0
2013-Jul-25 19:19N 57°43' E 010°36'0 0.0
2013-Jul-25 17:25N 57°43' E 010°36'0 0.0
2013-Jul-25 16:31N 57°43' E 010°36'0 0.0
2013-Jul-25 13:10N 57°43' E 010°36'0 0.0
2013-Jul-25 12:31N 57°43' E 010°36'0 0.0
2013-Jul-25 11:31N 57°43' E 010°36'0 0.0
2013-Jul-25 09:13N 57°43' E 010°36'0 0.0
2013-Jul-25 08:31N 57°43' E 010°36'0 0.0
2013-Jul-25 07:31N 57°43' E 010°36'0 0.0
2013-Jul-25 05:28N 57°43' E 010°36'0 0.0
2013-Jul-25 04:31N 57°43' E 010°36'0 0.0
2013-Jul-25 03:31N 57°43' E 010°36'0 0.0
2013-Jul-25 02:28N 57°43' E 010°36'0 0.0
2013-Jul-25 00:34N 57°43' E 010°36'6 6.1
2013-Jul-24 23:33N 57°41' E 010°47'1515.2
2013-Jul-24 22:34N 57°35' E 011°13'1515.1
2013-Jul-24 21:34N 57°23' E 011°29'1615.6
2013-Jul-24 20:34N 57°08' E 011°39'1515.0
2013-Jul-24 19:33N 56°54' E 011°48'1514.7
2013-Jul-24 18:33N 56°40' E 011°56'1515.2
2013-Jul-24 17:34N 56°25' E 012°02'44611.4
2013-Jul-23 02:33N 59°48' E 024°35'5 0.2
2013-Jul-21 23:09N 59°46' E 024°44'914.8
2013-Jul-21 22:33N 59°44' E 024°27'32913.6
2013-Jul-20 22:25N 56°04' E 016°46'1315.0
2013-Jul-20 21:34N 55°57' E 016°27'1514.8
2013-Jul-20 20:33N 55°50' E 016°04'1614.6
2013-Jul-20 19:28N 55°42' E 015°39'1314.6
2013-Jul-20 18:34N 55°36' E 015°18'1514.9
2013-Jul-20 17:33N 55°28' E 014°55'1514.7
2013-Jul-20 16:33N 55°20' E 014°34'1414.2
2013-Jul-20 15:33N 55°10' E 014°16'1514.7
2013-Jul-20 14:34N 55°11' E 013°51'1514.8
2013-Jul-20 13:34N 55°12' E 013°25'1514.7
2013-Jul-20 12:34N 55°13' E 012°59'1413.7
2013-Jul-20 11:33N 55°19' E 012°37'1413.5
2013-Jul-20 10:34N 55°32' E 012°42'1110.9
2013-Jul-20 09:34N 55°43' E 012°41'1414.0
2013-Jul-20 08:34N 55°57' E 012°38'1212.3
2013-Jul-20 07:33N 56°08' E 012°28'1514.9
2013-Jul-20 06:33N 56°16' E 012°06'1515.1
2013-Jul-20 05:33N 56°31' E 011°58'1515.4
2013-Jul-20 04:33N 56°46' E 011°51'1616.0
2013-Jul-20 03:32N 57°01' E 011°42'1515.3
2013-Jul-20 02:33N 57°15' E 011°32'1514.8
2013-Jul-20 01:33N 57°29' E 011°24'1515.1
2013-Jul-20 00:33N 57°44' E 011°27'1212.4
2013-Jul-19 23:33N 57°55' E 011°37'10 9.6
2013-Jul-19 22:34N 58°03' E 011°47'2 0.1
2013-Jul-18 18:33N 58°05' E 011°49'7 7.4
2013-Jul-18 17:33N 57°58' E 011°44'1110.7
2013-Jul-18 16:33N 57°52' E 011°28'1413.9
2013-Jul-18 15:33N 57°51' E 011°02'1615.8
2013-Jul-18 14:33N 57°48' E 010°33'1615.5
2013-Jul-18 13:33N 57°42' E 010°07'24114.2
2013-Jul-17 20:33N 54°38' E 005°27'1614.3
2013-Jul-17 19:26N 54°24' E 005°12'1314.4
2013-Jul-17 18:33N 54°13' E 005°01'1414.3
2013-Jul-17 17:33N 53°59' E 004°55'1514.7
2013-Jul-17 16:34N 53°45' E 004°52'1514.4
2013-Jul-17 15:31N 53°30' E 004°46'1714.5
2013-Jul-17 14:20N 53°15' E 004°35'1314.6
2013-Jul-17 13:27N 53°03' E 004°24'1314.7
2013-Jul-17 12:34N 52°52' E 004°14'1514.6
2013-Jul-17 11:34N 52°40' E 003°60'1515.4
2013-Jul-17 10:33N 52°29' E 003°41'1514.5
2013-Jul-17 09:33N 52°15' E 003°34'1515.4
2013-Jul-17 08:33N 52°00' E 003°29'1615.5
2013-Jul-17 07:33N 51°47' E 003°16'1413.6
2013-Jul-17 06:33N 51°34' E 003°24'1111.1
2013-Jul-17 05:33N 51°26' E 003°36'1111.0
2013-Jul-17 04:33N 51°21' E 003°52'8 8.2
2013-Jul-17 03:33N 51°22' E 004°05'1010.1
2013-Jul-17 02:34N 51°17' E 004°19'2 2.1
2013-Jul-17 01:34N 51°16' E 004°17'1 1.2
2013-Jul-17 00:33N 51°16' E 004°15'  

Dump ship's entire track history